createdAt,value
2017-04-14T00:00:24.320Z,100954.58
2017-04-14T00:01:22.165Z,100954.78
2017-04-14T00:02:20.142Z,100954.47
2017-04-14T00:03:17.947Z,100952.36
2017-04-14T00:04:15.905Z,100952.03
2017-04-14T00:05:14.619Z,100954.16
2017-04-14T00:06:12.436Z,100956.38
2017-04-14T00:07:10.340Z,100957.53
2017-04-14T00:08:08.197Z,100950.78
2017-04-14T00:09:06.104Z,100950.89
2017-04-14T00:10:04.116Z,100957.22
2017-04-14T00:11:01.964Z,100951.05
2017-04-14T00:11:59.861Z,100961.33
2017-04-14T00:12:57.680Z,100954.11
2017-04-14T00:13:55.517Z,100952.19
2017-04-14T00:14:53.372Z,100950.67
2017-04-14T00:15:51.225Z,100953.66
2017-04-14T00:16:49.105Z,100951.69
2017-04-14T00:17:47.009Z,100948.86
2017-04-14T00:18:44.817Z,100949.63
2017-04-14T00:19:42.623Z,100945.56
2017-04-14T00:20:40.424Z,100953.20
2017-04-14T00:21:38.216Z,100949.64
2017-04-14T00:22:36.438Z,100939.56
2017-04-14T00:23:34.325Z,100940.58
2017-04-14T00:24:32.161Z,100950.78
2017-04-14T00:25:30.068Z,100940.69
2017-04-14T00:26:27.888Z,100941.43
2017-04-14T00:27:25.828Z,100947.36
2017-04-14T00:28:23.687Z,100950.36
2017-04-14T00:29:21.537Z,100947.81
2017-04-14T00:30:19.439Z,100942.21
2017-04-14T00:31:17.320Z,100950.52
2017-04-14T00:32:15.389Z,100944.42
2017-04-14T00:33:13.308Z,100949.79
2017-04-14T00:34:11.236Z,100946.45
2017-04-14T00:35:09.420Z,100939.53
2017-04-14T00:36:07.307Z,100945.13
2017-04-14T00:37:05.268Z,100947.59
2017-04-14T00:38:03.385Z,100946.66
2017-04-14T00:39:01.514Z,100946.28
2017-04-14T00:39:59.461Z,100949.47
2017-04-14T00:40:57.457Z,100942.06
2017-04-14T00:41:55.420Z,100938.87
2017-04-14T00:42:53.234Z,100941.11
2017-04-14T00:43:51.277Z,100939.64
2017-04-14T00:44:49.087Z,100946.22
2017-04-14T00:45:46.995Z,100945.11
2017-04-14T00:46:44.841Z,100943.08
2017-04-14T00:47:42.937Z,100947.34
2017-04-14T00:48:40.760Z,100939.34
2017-04-14T00:49:38.608Z,100938.24
2017-04-14T00:50:36.421Z,100938.05
2017-04-14T00:51:34.210Z,100938.90
2017-04-14T00:52:32.142Z,100938.70
2017-04-14T00:53:30.036Z,100938.74
2017-04-14T00:54:27.825Z,100937.16
2017-04-14T00:55:25.637Z,100944.31
2017-04-14T00:56:23.453Z,100933.49
2017-04-14T00:57:21.413Z,100943.09
2017-04-14T00:58:19.250Z,100944.23
2017-04-14T00:59:17.146Z,100946.70
2017-04-14T01:00:14.988Z,100940.31
2017-04-14T01:01:12.960Z,100941.41
2017-04-14T01:02:10.972Z,100939.75
2017-04-14T01:03:08.780Z,100936.49
2017-04-14T01:04:06.616Z,100939.53
2017-04-14T01:05:04.465Z,100939.72
2017-04-14T01:06:02.301Z,100935.19
2017-04-14T01:07:00.169Z,100937.44
2017-04-14T01:07:58.003Z,100941.96
2017-04-14T01:08:55.939Z,100945.27
2017-04-14T01:09:54.313Z,100938.75
2017-04-14T01:10:52.247Z,100943.96
2017-04-14T01:11:50.173Z,100941.89
2017-04-14T01:12:48.213Z,100940.39
2017-04-14T01:13:46.052Z,100946.47
2017-04-14T01:14:43.899Z,100940.56
2017-04-14T01:15:41.748Z,100937.98
2017-04-14T01:16:39.606Z,100945.69
2017-04-14T01:17:37.698Z,100952.43
2017-04-14T01:18:35.547Z,100941.66
2017-04-14T01:19:33.885Z,100944.70
2017-04-14T01:20:31.873Z,100941.19
2017-04-14T01:21:29.810Z,100943.41
2017-04-14T01:22:27.676Z,100942.59
2017-04-14T01:23:25.593Z,100946.33
2017-04-14T01:24:23.416Z,100952.00
2017-04-14T01:25:21.260Z,100945.00
2017-04-14T01:26:19.095Z,100941.62
2017-04-14T01:27:17.133Z,100940.61
2017-04-14T01:28:14.935Z,100946.84
2017-04-14T01:29:12.840Z,100947.28
2017-04-14T01:30:10.711Z,100945.20
2017-04-14T01:31:08.526Z,100945.73
2017-04-14T01:32:06.507Z,100941.70
2017-04-14T01:33:04.344Z,100939.63
2017-04-14T01:34:02.206Z,100942.64
2017-04-14T01:35:00.110Z,100946.17
2017-04-14T01:35:58.104Z,100939.03
2017-04-14T01:36:55.940Z,100944.28
2017-04-14T01:37:53.768Z,100940.69
2017-04-14T01:38:51.645Z,100937.15
2017-04-14T01:39:49.607Z,100943.06
2017-04-14T01:40:47.476Z,100943.62
2017-04-14T01:41:45.319Z,100943.55
2017-04-14T01:42:43.247Z,100945.11
2017-04-14T01:43:41.112Z,100941.98
2017-04-14T01:44:38.969Z,100942.37
2017-04-14T01:45:36.862Z,100947.69
2017-04-14T01:46:34.684Z,100945.97
2017-04-14T01:47:32.696Z,100950.76
2017-04-14T01:48:30.568Z,100945.41
2017-04-14T01:49:28.435Z,100948.11
2017-04-14T01:50:26.275Z,100946.52
2017-04-14T01:51:24.132Z,100942.20
2017-04-14T01:52:22.086Z,100940.95
2017-04-14T01:53:19.927Z,100932.70
2017-04-14T01:54:17.823Z,100941.64
2017-04-14T01:55:15.625Z,100940.94
2017-04-14T01:56:13.659Z,100938.30
2017-04-14T01:57:11.561Z,100934.77
2017-04-14T01:58:09.410Z,100935.89
2017-04-14T01:59:07.404Z,100935.00
2017-04-14T02:00:05.280Z,100938.20
2017-04-14T02:01:03.266Z,100937.39
2017-04-14T02:02:01.135Z,100941.70
2017-04-14T02:02:58.954Z,100945.64
2017-04-14T02:03:56.820Z,100937.22
2017-04-14T02:04:54.660Z,100943.70
2017-04-14T02:05:52.615Z,100939.41
2017-04-14T02:06:50.486Z,100940.14
2017-04-14T02:07:48.405Z,100940.78
2017-04-14T02:08:46.270Z,100940.69
2017-04-14T02:09:44.151Z,100934.91
2017-04-14T02:10:42.105Z,100939.58
2017-04-14T02:11:39.984Z,100940.77
2017-04-14T02:12:37.828Z,100938.61
2017-04-14T02:13:35.660Z,100935.98
2017-04-14T02:14:33.553Z,100937.75
2017-04-14T02:15:31.399Z,100937.41
2017-04-14T02:16:29.337Z,100938.48
2017-04-14T02:17:27.189Z,100935.77
2017-04-14T02:18:25.052Z,100936.36
2017-04-14T02:19:22.888Z,100933.73
2017-04-14T02:20:20.711Z,100930.64
2017-04-14T02:21:18.654Z,100933.71
2017-04-14T02:22:16.481Z,100931.92
2017-04-14T02:23:14.432Z,100931.13
2017-04-14T02:24:12.356Z,100929.65
2017-04-14T02:25:10.196Z,100935.50
2017-04-14T02:26:08.289Z,100929.91
2017-04-14T02:27:06.116Z,100928.89
2017-04-14T02:28:03.976Z,100931.66
2017-04-14T02:29:01.819Z,100926.89
2017-04-14T02:29:59.714Z,100931.45
2017-04-14T02:30:57.530Z,100934.73
2017-04-14T02:31:55.360Z,100933.95
2017-04-14T02:32:53.343Z,100933.18
2017-04-14T02:33:51.217Z,100935.61
2017-04-14T02:34:49.133Z,100932.20
2017-04-14T02:35:47.019Z,100931.05
2017-04-14T02:36:44.921Z,100927.11
2017-04-14T02:37:42.723Z,100937.61
2017-04-14T02:38:40.521Z,100934.96
2017-04-14T02:39:38.416Z,100931.55
2017-04-14T02:40:36.275Z,100939.05
2017-04-14T02:41:34.199Z,100929.67
2017-04-14T02:42:32.028Z,100934.12
2017-04-14T02:43:29.981Z,100931.95
2017-04-14T02:44:27.977Z,100935.55
2017-04-14T02:45:25.802Z,100933.95
2017-04-14T02:46:23.617Z,100934.40
2017-04-14T02:47:21.467Z,100937.18
2017-04-14T02:48:19.416Z,100925.98
2017-04-14T02:49:17.280Z,100926.95
2017-04-14T02:50:15.231Z,100937.97
2017-04-14T02:51:13.100Z,100931.64
2017-04-14T02:52:10.948Z,100933.45
2017-04-14T02:53:08.802Z,100934.77
2017-04-14T02:54:06.684Z,100935.86
2017-04-14T02:55:04.595Z,100928.36
2017-04-14T02:56:02.400Z,100927.35
2017-04-14T02:57:00.555Z,100935.35
2017-04-14T02:57:58.431Z,100938.28
2017-04-14T02:58:56.293Z,100935.16
2017-04-14T02:59:54.169Z,100935.53
2017-04-14T03:00:52.128Z,100936.97
2017-04-14T03:01:49.985Z,100935.23
2017-04-14T03:02:47.813Z,100934.47
2017-04-14T03:03:45.648Z,100935.83
2017-04-14T03:04:43.504Z,100940.73
2017-04-14T03:05:41.307Z,100943.06
2017-04-14T03:06:39.252Z,100940.06
2017-04-14T03:07:37.116Z,100938.90
2017-04-14T03:08:35.148Z,100937.78
2017-04-14T03:09:33.011Z,100941.03
2017-04-14T03:10:30.869Z,100940.63
2017-04-14T03:11:28.787Z,100935.21
2017-04-14T03:12:26.631Z,100932.48
2017-04-14T03:13:24.460Z,100937.18
2017-04-14T03:14:22.289Z,100933.83
2017-04-14T03:15:20.173Z,100939.91
2017-04-14T03:16:18.019Z,100940.52
2017-04-14T03:17:15.935Z,100933.45
2017-04-14T03:18:13.796Z,100943.50
2017-04-14T03:19:11.687Z,100943.75
2017-04-14T03:20:09.686Z,100942.95
2017-04-14T03:21:07.529Z,100942.05
2017-04-14T03:22:05.363Z,100947.75
2017-04-14T03:23:03.218Z,100942.09
2017-04-14T03:24:01.151Z,100937.74
2017-04-14T03:24:59.009Z,100935.53
2017-04-14T03:25:56.837Z,100941.49
2017-04-14T03:26:54.800Z,100935.70
2017-04-14T03:27:52.635Z,100935.05
2017-04-14T03:28:50.474Z,100936.92
2017-04-14T03:29:48.361Z,100937.09
2017-04-14T03:30:46.269Z,100940.23
2017-04-14T03:31:44.056Z,100938.25
2017-04-14T03:32:42.035Z,100935.78
2017-04-14T03:33:39.912Z,100934.76
2017-04-14T03:34:37.829Z,100938.23
2017-04-14T03:35:35.740Z,100935.75
2017-04-14T03:36:33.588Z,100934.92
2017-04-14T03:37:31.388Z,100932.94
2017-04-14T03:38:29.231Z,100936.97
2017-04-14T03:39:27.160Z,100935.48
2017-04-14T03:40:24.998Z,100941.60
2017-04-14T03:41:22.855Z,100933.14
2017-04-14T03:42:20.829Z,100936.52
2017-04-14T03:43:18.698Z,100934.57
2017-04-14T03:44:16.578Z,100936.67
2017-04-14T03:45:14.415Z,100941.19
2017-04-14T03:46:12.393Z,100939.30
2017-04-14T03:47:10.204Z,100941.31
2017-04-14T03:48:08.015Z,100937.98
2017-04-14T03:49:05.965Z,100940.94
2017-04-14T03:50:03.875Z,100937.20
2017-04-14T03:51:01.771Z,100940.26
2017-04-14T03:51:59.600Z,100940.38
2017-04-14T03:52:57.475Z,100938.66
2017-04-14T03:53:55.340Z,100943.90
2017-04-14T03:54:53.178Z,100936.38
2017-04-14T03:55:51.126Z,100941.80
2017-04-14T03:56:49.013Z,100941.87
2017-04-14T03:57:46.941Z,100937.77
2017-04-14T03:58:44.791Z,100941.11
2017-04-14T03:59:42.673Z,100950.02
2017-04-14T04:00:40.504Z,100946.14
2017-04-14T04:01:38.352Z,100944.98
2017-04-14T04:02:36.296Z,100945.09
2017-04-14T04:03:34.133Z,100941.56
2017-04-14T04:04:32.088Z,100939.38
2017-04-14T04:05:29.920Z,100936.55
2017-04-14T04:06:27.796Z,100931.86
2017-04-14T04:07:25.692Z,100941.69
2017-04-14T04:08:23.617Z,100947.27
2017-04-14T04:09:21.492Z,100943.80
2017-04-14T04:10:19.366Z,100941.61
2017-04-14T04:11:17.320Z,100951.27
2017-04-14T04:12:15.143Z,100944.38
2017-04-14T04:13:13.060Z,100941.00
2017-04-14T04:14:10.944Z,100944.91
2017-04-14T04:15:08.833Z,100947.91
2017-04-14T04:16:06.671Z,100939.89
2017-04-14T04:17:04.561Z,100945.55
2017-04-14T04:18:02.461Z,100951.39
2017-04-14T04:19:00.290Z,100952.18
2017-04-14T04:19:58.204Z,100954.98
2017-04-14T04:20:56.088Z,100957.62
2017-04-14T04:21:53.903Z,100956.77
2017-04-14T04:22:51.875Z,100956.95
2017-04-14T04:23:49.723Z,100961.95
2017-04-14T04:24:47.655Z,100961.70
2017-04-14T04:25:45.500Z,100959.48
2017-04-14T04:26:43.365Z,100958.48
2017-04-14T04:27:41.248Z,100948.59
2017-04-14T04:28:39.227Z,100947.66
2017-04-14T04:29:37.066Z,100950.08
2017-04-14T04:30:34.907Z,100958.95
2017-04-14T04:31:37.352Z,100949.20
2017-04-14T04:33:41.536Z,100949.50
2017-04-14T04:34:39.364Z,100958.33
2017-04-14T04:35:37.191Z,100952.84
2017-04-14T04:36:35.002Z,100952.05
2017-04-14T04:37:33.013Z,100950.52
2017-04-14T04:38:30.807Z,100950.05
2017-04-14T04:39:28.742Z,100961.25
2017-04-14T04:40:26.621Z,100955.06
2017-04-14T04:41:24.515Z,100949.13
2017-04-14T04:42:22.474Z,100953.75
2017-04-14T04:43:20.340Z,100954.39
2017-04-14T04:44:18.249Z,100954.36
2017-04-14T04:45:16.113Z,100956.25
2017-04-14T04:46:13.999Z,100955.31
2017-04-14T04:47:11.921Z,100958.36
2017-04-14T04:48:09.748Z,100962.08
2017-04-14T04:49:07.616Z,100957.57
2017-04-14T04:50:05.420Z,100961.98
2017-04-14T04:51:03.469Z,100963.25
2017-04-14T04:52:01.296Z,100962.91
2017-04-14T04:52:59.214Z,100963.47
2017-04-14T04:53:57.079Z,100956.07
2017-04-14T04:54:54.956Z,100958.73
2017-04-14T04:55:52.840Z,100953.02
2017-04-14T04:56:50.688Z,100960.77
2017-04-14T04:57:48.646Z,100960.83
2017-04-14T04:58:46.492Z,100964.27
2017-04-14T04:59:44.417Z,100958.98
2017-04-14T05:00:42.271Z,100952.50
2017-04-14T05:01:40.129Z,100949.00
2017-04-14T05:02:38.003Z,100951.09
2017-04-14T05:03:35.832Z,100959.35
2017-04-14T05:04:35.455Z,100956.17
2017-04-14T05:05:34.435Z,100965.91
2017-04-14T05:06:32.348Z,100961.02
2017-04-14T05:07:30.172Z,100955.27
2017-04-14T05:08:28.124Z,100953.94
2017-04-14T05:09:26.005Z,100959.66
2017-04-14T05:10:23.948Z,100964.46
2017-04-14T05:11:21.760Z,100966.95
2017-04-14T05:12:19.761Z,100968.17
2017-04-14T05:13:17.608Z,100965.64
2017-04-14T05:14:15.438Z,100953.78
2017-04-14T05:15:13.372Z,100953.02
2017-04-14T05:16:11.285Z,100960.95
2017-04-14T05:17:09.104Z,100963.47
2017-04-14T05:18:06.977Z,100964.73
2017-04-14T05:19:04.852Z,100967.61
2017-04-14T05:20:02.689Z,100961.83
2017-04-14T05:21:00.512Z,100959.00
2017-04-14T05:21:58.480Z,100961.83
2017-04-14T05:22:56.364Z,100964.29
2017-04-14T05:23:54.378Z,100969.80
2017-04-14T05:24:52.266Z,100967.84
2017-04-14T05:25:50.144Z,100967.86
2017-04-14T05:26:48.044Z,100961.69
2017-04-14T05:27:45.893Z,100964.53
2017-04-14T05:28:43.726Z,100965.20
2017-04-14T05:29:41.584Z,100966.19
2017-04-14T05:30:39.507Z,100973.41
2017-04-14T05:31:37.336Z,100975.11
2017-04-14T05:32:35.352Z,100975.59
2017-04-14T05:33:33.185Z,100973.50
2017-04-14T05:34:31.089Z,100974.89
2017-04-14T05:35:29.020Z,100976.38
2017-04-14T05:36:26.837Z,100961.86
2017-04-14T05:37:24.789Z,100969.33
2017-04-14T05:38:22.647Z,100962.77
2017-04-14T05:39:20.568Z,100964.27
2017-04-14T05:40:18.423Z,100966.78
2017-04-14T05:41:16.296Z,100968.03
2017-04-14T05:42:14.267Z,100966.89
2017-04-14T05:43:12.142Z,100966.63
2017-04-14T05:44:12.657Z,100968.12
2017-04-14T05:45:10.548Z,100968.84
2017-04-14T05:46:08.378Z,100970.25
2017-04-14T05:47:06.196Z,100972.30
2017-04-14T05:48:04.013Z,100973.02
2017-04-14T05:49:01.875Z,100973.30
2017-04-14T05:49:59.735Z,100969.86
2017-04-14T05:50:57.585Z,100971.94
2017-04-14T05:51:55.484Z,100973.39
2017-04-14T05:52:53.335Z,100975.89
2017-04-14T05:53:51.185Z,100971.59
2017-04-14T05:54:48.999Z,100972.41
2017-04-14T05:55:46.936Z,100971.58
2017-04-14T05:56:44.851Z,100975.77
2017-04-14T05:57:42.742Z,100973.52
2017-04-14T05:58:40.575Z,100976.41
2017-04-14T05:59:38.400Z,100971.22
2017-04-14T06:00:36.391Z,100971.91
2017-04-14T06:01:34.249Z,100975.66
2017-04-14T06:02:32.320Z,100981.09
2017-04-14T06:03:30.158Z,100978.94
2017-04-14T06:04:28.022Z,100978.88
2017-04-14T06:05:25.851Z,100976.13
2017-04-14T06:06:23.729Z,100978.47
2017-04-14T06:07:21.600Z,100982.33
2017-04-14T06:08:19.396Z,100983.39
2017-04-14T06:09:17.393Z,100978.91
2017-04-14T06:10:15.262Z,100980.48
2017-04-14T06:11:13.151Z,100982.98
2017-04-14T06:12:11.021Z,100983.98
2017-04-14T06:13:08.848Z,100982.30
2017-04-14T06:14:06.741Z,100983.61
2017-04-14T06:15:04.602Z,100988.61
2017-04-14T06:16:02.559Z,100983.92
2017-04-14T06:17:00.407Z,100987.92
2017-04-14T06:17:58.249Z,100994.00
2017-04-14T06:18:56.223Z,100984.12
2017-04-14T06:19:54.055Z,100988.75
2017-04-14T06:20:51.964Z,100991.34
2017-04-14T06:21:49.795Z,100992.04
2017-04-14T06:22:47.718Z,100986.23
2017-04-14T06:23:45.584Z,100986.90
2017-04-14T06:24:43.433Z,100994.00
2017-04-14T06:25:41.369Z,100986.35
2017-04-14T06:26:39.217Z,100987.26
2017-04-14T06:27:37.097Z,100987.56
2017-04-14T06:28:34.927Z,100987.36
2017-04-14T06:29:32.890Z,100988.09
2017-04-14T06:30:30.827Z,100993.16
2017-04-14T06:31:28.631Z,100990.49
2017-04-14T06:32:26.540Z,100986.66
2017-04-14T06:33:24.334Z,100993.31
2017-04-14T06:34:22.347Z,100991.14
2017-04-14T06:35:20.288Z,100991.33
2017-04-14T06:36:18.280Z,100987.21
2017-04-14T06:37:16.108Z,100993.13
2017-04-14T06:38:13.920Z,100992.98
2017-04-14T06:39:11.812Z,100992.70
2017-04-14T06:40:09.734Z,100993.39
2017-04-14T06:41:07.568Z,100989.23
2017-04-14T06:42:05.377Z,100983.46
2017-04-14T06:43:03.188Z,100989.98
2017-04-14T06:44:01.019Z,100989.05
2017-04-14T06:44:58.851Z,100987.78
2017-04-14T06:45:56.696Z,100986.11
2017-04-14T06:46:54.553Z,100989.16
2017-04-14T06:47:52.373Z,100985.11
2017-04-14T06:48:50.220Z,100988.79
2017-04-14T06:49:48.060Z,100990.33
2017-04-14T06:50:45.988Z,100987.36
2017-04-14T06:51:43.872Z,100980.70
2017-04-14T06:52:41.719Z,100984.94
2017-04-14T06:53:39.607Z,100984.39
2017-04-14T06:54:37.452Z,100982.98
2017-04-14T06:55:35.294Z,100977.50
2017-04-14T06:56:33.176Z,100978.83
2017-04-14T06:57:31.020Z,100975.19
2017-04-14T06:58:28.931Z,100979.31
2017-04-14T06:59:26.829Z,100979.81
2017-04-14T07:00:24.766Z,100981.48
2017-04-14T07:01:22.599Z,100985.58
2017-04-14T07:02:20.447Z,100980.00
2017-04-14T07:03:19.088Z,100977.03
2017-04-14T07:04:16.972Z,100982.85
2017-04-14T07:05:14.911Z,100982.85
2017-04-14T07:06:12.772Z,100990.13
2017-04-14T07:07:10.586Z,100983.59
2017-04-14T07:08:08.461Z,100983.53
2017-04-14T07:09:06.960Z,100982.22
2017-04-14T07:10:05.010Z,100976.37
2017-04-14T07:11:02.872Z,100972.86
2017-04-14T07:12:00.700Z,100971.12
2017-04-14T07:12:58.629Z,100972.34
2017-04-14T07:13:56.433Z,100968.91
2017-04-14T07:14:54.341Z,100972.05
2017-04-14T07:15:52.187Z,100979.59
2017-04-14T07:16:50.124Z,100974.92
2017-04-14T07:17:47.977Z,100979.37
2017-04-14T07:18:45.842Z,100977.13
2017-04-14T07:19:43.763Z,100979.11
2017-04-14T07:20:41.659Z,100977.77
2017-04-14T07:21:39.481Z,100971.52
2017-04-14T07:22:39.800Z,100980.31
2017-04-14T07:23:37.650Z,100974.12
2017-04-14T07:24:35.488Z,100979.98
2017-04-14T07:25:33.344Z,100978.73
2017-04-14T07:26:31.178Z,100984.77
2017-04-14T07:27:28.960Z,100977.70
2017-04-14T07:28:26.769Z,100978.56
2017-04-14T07:29:24.727Z,100978.94
2017-04-14T07:30:23.716Z,100980.13
2017-04-14T07:31:21.614Z,100984.90
2017-04-14T07:32:20.080Z,100981.63
2017-04-14T07:33:17.919Z,100976.98
2017-04-14T07:34:15.748Z,100974.80
2017-04-14T07:35:13.612Z,100981.24
2017-04-14T07:36:11.451Z,100981.84
2017-04-14T07:37:09.280Z,100978.86
2017-04-14T07:38:07.135Z,100977.03
2017-04-14T07:39:05.801Z,100977.19
2017-04-14T07:40:03.680Z,100973.84
2017-04-14T07:41:01.481Z,100978.95
2017-04-14T07:41:59.470Z,100977.42
2017-04-14T07:42:57.760Z,100983.13
2017-04-14T07:43:55.637Z,100975.88
2017-04-14T07:44:53.489Z,100978.73
2017-04-14T07:45:51.362Z,100979.96
2017-04-14T07:46:49.141Z,100978.49
2017-04-14T07:47:47.016Z,100977.10
2017-04-14T07:48:44.881Z,100980.03
2017-04-14T07:49:42.739Z,100976.73
2017-04-14T07:50:40.584Z,100981.20
2017-04-14T07:51:38.411Z,100966.27
2017-04-14T07:52:36.244Z,100968.06
2017-04-14T07:53:34.235Z,100969.06
2017-04-14T07:54:32.107Z,100970.31
2017-04-14T07:55:30.011Z,100968.11
2017-04-14T07:56:28.116Z,100965.53
2017-04-14T07:57:26.144Z,100966.84
2017-04-14T07:58:24.361Z,100974.55
2017-04-14T07:59:22.352Z,100969.58
2017-04-14T08:00:20.320Z,100972.28
2017-04-14T08:01:18.205Z,100974.90
2017-04-14T08:02:16.058Z,100967.45
2017-04-14T08:03:13.933Z,100964.00
2017-04-14T08:04:11.752Z,100967.57
2017-04-14T08:05:09.621Z,100968.15
2017-04-14T08:06:07.480Z,100973.78
2017-04-14T08:07:05.252Z,100971.52
2017-04-14T08:08:03.149Z,100971.58
2017-04-14T08:09:01.000Z,100974.52
2017-04-14T08:09:58.856Z,100972.06
2017-04-14T08:10:56.776Z,100970.48
2017-04-14T08:11:54.724Z,100970.00
2017-04-14T08:12:52.994Z,100970.48
2017-04-14T08:13:50.821Z,100973.95
2017-04-14T08:14:48.635Z,100974.45
2017-04-14T08:15:46.503Z,100973.91
2017-04-14T08:16:44.485Z,100973.09
2017-04-14T08:17:42.294Z,100973.44
2017-04-14T08:18:40.257Z,100973.04
2017-04-14T08:19:38.259Z,100978.50
2017-04-14T08:20:36.316Z,100976.02
2017-04-14T08:21:34.136Z,100976.89
2017-04-14T08:22:32.087Z,100980.05
2017-04-14T08:23:29.972Z,100972.03
2017-04-14T08:24:27.845Z,100977.19
2017-04-14T08:25:25.728Z,100980.13
2017-04-14T08:26:23.778Z,100975.36
2017-04-14T08:27:21.620Z,100976.02
2017-04-14T08:28:19.491Z,100976.87
2017-04-14T08:29:17.576Z,100981.86
2017-04-14T08:30:15.448Z,100975.11
2017-04-14T08:31:13.338Z,100974.23
2017-04-14T08:32:11.164Z,100980.49
2017-04-14T08:33:09.091Z,100977.44
2017-04-14T08:34:08.444Z,100981.55
2017-04-14T08:35:06.305Z,100984.41
2017-04-14T08:36:04.239Z,100975.03
2017-04-14T08:37:02.131Z,100983.80
2017-04-14T08:37:59.907Z,100986.98
2017-04-14T08:38:57.752Z,100989.27
2017-04-14T08:39:55.642Z,100985.86
2017-04-14T08:40:53.606Z,100982.63
2017-04-14T08:41:51.492Z,100989.07
2017-04-14T08:42:49.353Z,100991.89
2017-04-14T08:43:47.190Z,100987.02
2017-04-14T08:44:45.027Z,100987.34
2017-04-14T08:45:42.879Z,100990.58
2017-04-14T08:46:40.736Z,100993.23
2017-04-14T08:47:38.568Z,100989.02
2017-04-14T08:48:36.472Z,100990.66
2017-04-14T08:49:34.320Z,100989.16
2017-04-14T08:50:32.185Z,100981.81
2017-04-14T08:51:29.968Z,100983.94
2017-04-14T08:52:27.825Z,100989.91
2017-04-14T08:53:25.679Z,100985.29
2017-04-14T08:54:23.488Z,100986.68
2017-04-14T08:55:21.454Z,100986.66
2017-04-14T08:56:19.314Z,100991.48
2017-04-14T08:57:17.188Z,100987.94
2017-04-14T08:58:15.069Z,100986.45
2017-04-14T08:59:13.292Z,100980.63
2017-04-14T09:00:11.255Z,100982.19
2017-04-14T09:01:09.102Z,100984.64
2017-04-14T09:02:07.004Z,100980.03
2017-04-14T09:03:04.849Z,100984.13
2017-04-14T09:04:02.840Z,100984.28
2017-04-14T09:05:00.721Z,100985.08
2017-04-14T09:05:58.551Z,100981.50
2017-04-14T09:06:56.440Z,100985.96
2017-04-14T09:07:54.304Z,100984.91
2017-04-14T09:08:52.237Z,100981.21
2017-04-14T09:09:50.053Z,100991.47
2017-04-14T09:10:48.031Z,100985.36
2017-04-14T09:11:46.109Z,100982.78
2017-04-14T09:12:43.957Z,100988.69
2017-04-14T09:13:43.876Z,100989.95
2017-04-14T09:14:41.720Z,100987.74
2017-04-14T09:15:39.563Z,100987.11
2017-04-14T09:16:37.458Z,100986.25
2017-04-14T09:17:35.317Z,100991.72
2017-04-14T09:18:33.292Z,100989.86
2017-04-14T09:19:31.528Z,100989.63
2017-04-14T09:20:29.416Z,100991.41
2017-04-14T09:21:27.572Z,100986.91
2017-04-14T09:22:25.429Z,100994.39
2017-04-14T09:23:23.356Z,100989.11
2017-04-14T09:24:21.227Z,100987.77
2017-04-14T09:25:19.174Z,100990.14
2017-04-14T09:26:17.080Z,100992.00
2017-04-14T09:27:14.961Z,100989.88
2017-04-14T09:28:12.883Z,100991.64
2017-04-14T09:29:10.762Z,100995.38
2017-04-14T09:30:08.700Z,100993.00
2017-04-14T09:31:06.564Z,100994.83
2017-04-14T09:32:04.420Z,100994.67
2017-04-14T09:33:02.348Z,100996.98
2017-04-14T09:34:00.212Z,100993.09
2017-04-14T09:34:58.404Z,100992.40
2017-04-14T09:35:56.395Z,100997.58
2017-04-14T09:36:54.416Z,100998.80
2017-04-14T09:37:52.265Z,101000.58
2017-04-14T09:38:50.186Z,100998.28
2017-04-14T09:39:48.047Z,100997.41
2017-04-14T09:40:45.947Z,101000.43
2017-04-14T09:41:43.800Z,100996.30
2017-04-14T09:42:41.696Z,101001.05
2017-04-14T09:43:39.562Z,100997.67
2017-04-14T09:44:37.517Z,101001.31
2017-04-14T09:45:35.468Z,100999.86
2017-04-14T09:46:34.254Z,100996.67
2017-04-14T09:47:32.136Z,100986.92
2017-04-14T09:48:30.082Z,100998.54
2017-04-14T09:49:29.122Z,100991.77
2017-04-14T09:50:28.237Z,100987.83
2017-04-14T09:51:26.175Z,100992.14
2017-04-14T09:52:24.087Z,100995.02
2017-04-14T09:53:21.967Z,100989.20
2017-04-14T09:54:19.820Z,100990.20
2017-04-14T09:55:17.698Z,100995.89
2017-04-14T09:56:15.605Z,100989.72
2017-04-14T09:57:13.464Z,100989.22
2017-04-14T09:58:11.304Z,100996.86
2017-04-14T09:59:09.233Z,100996.33
2017-04-14T10:00:07.160Z,100994.05
2017-04-14T10:01:05.120Z,100995.82
2017-04-14T10:02:03.015Z,100994.45
2017-04-14T10:03:00.944Z,100994.45
2017-04-14T10:03:58.850Z,100989.92
2017-04-14T10:04:56.701Z,100997.06
2017-04-14T10:05:54.595Z,100991.17
2017-04-14T10:06:52.611Z,100991.26
2017-04-14T10:07:50.470Z,100989.17
2017-04-14T10:08:48.334Z,100986.86
2017-04-14T10:09:46.168Z,100990.02
2017-04-14T10:10:43.976Z,100986.16
2017-04-14T10:11:42.644Z,100984.50
2017-04-14T10:12:40.850Z,100983.59
2017-04-14T10:13:38.845Z,100984.55
2017-04-14T10:14:36.678Z,100982.70
2017-04-14T10:15:35.976Z,100984.38
2017-04-14T10:16:33.841Z,100987.91
2017-04-14T10:17:31.836Z,100990.98
2017-04-14T10:18:29.721Z,100986.58
2017-04-14T10:19:27.532Z,100986.75
2017-04-14T10:20:25.376Z,100986.95
2017-04-14T10:21:23.244Z,100984.91
2017-04-14T10:22:21.192Z,100982.87
2017-04-14T10:23:19.031Z,100991.00
2017-04-14T10:24:16.852Z,100980.42
2017-04-14T10:25:14.741Z,100983.06
2017-04-14T10:26:12.580Z,100982.80
2017-04-14T10:27:10.404Z,100981.31
2017-04-14T10:28:08.285Z,100986.50
2017-04-14T10:29:06.115Z,100988.77
2017-04-14T10:30:04.038Z,100985.42
2017-04-14T10:31:02.192Z,100983.75
2017-04-14T10:32:00.013Z,100981.23
2017-04-14T10:32:57.868Z,100988.63
2017-04-14T10:33:55.699Z,100983.03
2017-04-14T10:34:53.561Z,100983.88
2017-04-14T10:35:51.430Z,100979.20
2017-04-14T10:36:49.301Z,100984.11
2017-04-14T10:37:47.169Z,100982.13
2017-04-14T10:38:45.026Z,100981.49
2017-04-14T10:39:42.866Z,100981.03
2017-04-14T10:40:41.717Z,100985.86
2017-04-14T10:41:40.949Z,100985.77
2017-04-14T10:42:38.765Z,100985.59
2017-04-14T10:43:36.737Z,100984.05
2017-04-14T10:44:34.612Z,100990.34
2017-04-14T10:45:32.432Z,100984.48
2017-04-14T10:46:31.068Z,100983.72
2017-04-14T10:47:28.891Z,100981.44
2017-04-14T10:48:26.809Z,100980.11
2017-04-14T10:49:24.690Z,100978.42
2017-04-14T10:50:22.577Z,100984.91
2017-04-14T10:51:20.431Z,100982.59
2017-04-14T10:52:18.243Z,100982.65
2017-04-14T10:53:16.876Z,100984.52
2017-04-14T10:54:15.452Z,100983.81
2017-04-14T10:55:13.392Z,100984.33
2017-04-14T10:56:11.588Z,100980.50
2017-04-14T10:57:09.593Z,100986.78
2017-04-14T10:58:07.527Z,100985.27
2017-04-14T10:59:05.441Z,100987.00
2017-04-14T11:00:03.401Z,100983.03
2017-04-14T11:01:01.368Z,100990.13
2017-04-14T11:01:59.296Z,100982.59